Time;durP1;ratioP1;P1;durP2;ratioP2;P2;SDS_P1;SDS_P2;PMS_P1;PMS_P2;Temp;Humidity;BMP_temperature;BMP_pressure;BME280_temperature;BME280_humidity;BME280_pressure;Samples;Min_cycle;Max_cycle;Signal;HPM_P1;HPM_P2
2022/12/24 00:02:11;;;;;;;;;7.33;4.00;;;;;13.55;66.69;100780.78;5045356;28;45322;-65
2022/12/24 00:04:36;;;;;;;;;7.00;6.67;;;;;13.65;66.54;100806.88;5032855;28;45294;-69
2022/12/24 00:07:02;;;;;;;;;4.67;2.00;;;;;13.66;66.16;100808.69;5042183;28;45281;-67
2022/12/24 00:09:27;;;;;;;;;9.67;6.67;;;;;13.66;66.21;100806.00;5049510;28;45322;-70
2022/12/24 00:11:53;;;;;;;;;7.67;4.67;;;;;13.49;66.66;100767.25;5046609;28;45953;-66
2022/12/24 00:14:18;;;;;;;;;9.33;5.00;;;;;13.55;66.70;100784.34;5047056;28;45053;-65
2022/12/24 00:16:43;;;;;;;;;8.33;4.67;;;;;13.61;67.00;100800.56;5048108;28;45523;-67
2022/12/24 00:19:09;;;;;;;;;11.67;5.00;;;;;13.53;66.32;100779.84;5043995;28;45391;-69
2022/12/24 00:21:34;;;;;;;;;4.00;2.67;;;;;13.60;66.55;100789.81;5034155;28;45481;-66
2022/12/24 00:24:02;;;;;;;;;7.33;3.00;;;;;13.16;66.91;100717.53;5031983;28;45394;-68
2022/12/24 00:26:28;;;;;;;;;7.33;5.00;;;;;13.45;66.25;100777.06;5031248;28;45689;-66
2022/12/24 00:28:53;;;;;;;;;8.33;6.00;;;;;13.54;66.89;100801.34;5034417;28;45608;-65
2022/12/24 00:31:18;;;;;;;;;7.33;3.00;;;;;13.54;67.00;100809.38;5036019;28;46494;-66
2022/12/24 00:33:45;;;;;;;;;5.00;5.00;;;;;13.55;67.22;100810.31;5031771;28;45496;-68
2022/12/24 00:36:11;;;;;;;;;6.00;3.00;;;;;13.51;66.88;100803.06;5032653;28;45605;-69
2022/12/24 00:38:37;;;;;;;;;9.00;6.00;;;;;13.50;66.98;100794.13;5017759;28;45650;-67
2022/12/24 00:41:05;;;;;;;;;8.00;5.00;;;;;13.55;67.06;100810.31;5033624;28;46257;-65
2022/12/24 00:43:31;;;;;;;;;8.00;5.00;;;;;13.52;66.89;100821.88;5020478;28;45981;-67
2022/12/24 00:45:57;;;;;;;;;10.00;5.67;;;;;13.50;66.37;100829.03;5030937;28;45557;-67
2022/12/24 00:48:22;;;;;;;;;8.67;4.00;;;;;13.38;67.36;100810.94;5033818;28;45576;-64
2022/12/24 00:50:51;;;;;;;;;9.67;4.33;;;;;13.50;67.01;100837.06;5031448;28;46224;-65
2022/12/24 00:53:17;;;;;;;;;10.00;7.00;;;;;13.34;67.31;100811.75;5030706;28;45495;-65
2022/12/24 00:55:42;;;;;;;;;7.67;5.33;;;;;13.44;66.60;100821.75;5029023;28;45419;-66
2022/12/24 00:58:07;;;;;;;;;4.67;4.00;;;;;13.49;67.40;100821.84;5029682;28;45539;-66
2022/12/24 01:00:33;;;;;;;;;6.67;4.67;;;;;13.31;66.94;100803.63;5033329;28;45995;-65
2022/12/24 01:02:58;;;;;;;;;12.33;4.67;;;;;13.04;66.83;100780.84;5031745;28;45419;-68
2022/12/24 01:05:24;;;;;;;;;4.67;4.00;;;;;13.31;67.16;100832.25;5028419;28;46136;-66
2022/12/24 01:07:49;;;;;;;;;10.67;6.00;;;;;13.38;66.89;100844.91;5036081;28;45583;-65
2022/12/24 01:10:18;;;;;;;;;4.00;2.67;;;;;13.46;67.83;100854.00;5035423;28;45431;-65
2022/12/24 01:12:44;;;;;;;;;6.00;4.33;;;;;13.47;67.08;100845.06;5034531;28;45548;-66
2022/12/24 01:15:11;;;;;;;;;6.67;4.33;;;;;13.43;67.50;100819.09;5036193;28;45384;-65
2022/12/24 01:17:37;;;;;;;;;3.33;3.00;;;;;13.48;67.20;100832.53;5035985;28;45280;-66
2022/12/24 01:20:05;;;;;;;;;11.33;5.00;;;;;13.31;67.54;100814.34;5029974;28;45580;-68
2022/12/24 01:22:33;;;;;;;;;10.67;4.67;;;;;13.35;67.55;100815.38;5034376;28;45385;-66
2022/12/24 01:24:59;;;;;;;;;5.67;5.67;;;;;13.48;67.43;100820.06;5029518;28;45909;-65
2022/12/24 01:27:24;;;;;;;;;11.33;4.33;;;;;13.43;67.66;100821.75;5036659;28;45548;-65
2022/12/24 01:29:50;;;;;;;;;5.67;4.00;;;;;13.40;67.22;100824.41;5033211;28;45992;-66
2022/12/24 01:32:15;;;;;;;;;8.00;6.00;;;;;13.43;67.36;100854.88;5032772;28;46643;-66
2022/12/24 01:34:41;;;;;;;;;9.00;4.00;;;;;13.38;67.42;100847.59;5015794;28;45563;-67
2022/12/24 01:37:06;;;;;;;;;11.67;5.00;;;;;13.37;67.73;100848.50;5029608;28;45357;-65
2022/12/24 01:39:31;;;;;;;;;11.67;4.00;;;;;13.33;68.09;100847.53;5035062;28;46106;-66
2022/12/24 01:44:50;;;;;;;;;7.33;6.00;;;;;13.29;67.66;100834.91;5035577;28;45284;-65
2022/12/24 01:47:29;;;;;;;;;9.00;5.33;;;;;13.23;68.64;100829.44;5017728;28;45294;-65
2022/12/24 01:50:02;;;;;;;;;6.33;5.00;;;;;13.23;68.61;100834.78;5029035;28;47287;-64
2022/12/24 01:52:33;;;;;;;;;8.67;4.00;;;;;13.38;68.58;100858.34;5027371;28;45416;-65
2022/12/24 01:55:06;;;;;;;;;9.00;4.00;;;;;13.38;68.21;100859.25;5030754;28;45376;-64
2022/12/24 01:57:46;;;;;;;;;5.00;4.67;;;;;13.37;68.29;100860.13;5033550;28;45462;-66
2022/12/24 02:00:14;;;;;;;;;9.00;5.33;;;;;13.38;68.51;100874.44;5032943;28;45585;-64
2022/12/24 02:02:42;;;;;;;;;5.00;4.00;;;;;13.06;67.93;100824.69;5032030;28;45386;-67
2022/12/24 02:05:51;;;;;;;;;14.00;5.67;;;;;13.40;68.45;100878.06;5015168;28;45411;-64
2022/12/24 02:08:17;;;;;;;;;7.67;5.67;;;;;13.34;68.39;100867.22;5031777;28;45587;-68
2022/12/24 02:10:44;;;;;;;;;4.33;3.33;;;;;13.42;68.68;100897.78;5033837;28;45711;-67
2022/12/24 02:13:09;;;;;;;;;13.33;4.67;;;;;13.22;68.70;100865.19;5035219;28;45414;-66
2022/12/24 02:16:01;;;;;;;;;6.33;5.00;;;;;13.24;68.50;100861.66;5034881;28;45415;-64
2022/12/24 02:19:08;;;;;;;;;9.33;4.67;;;;;13.36;69.07;100878.88;5018550;28;45465;-65
2022/12/24 02:21:43;;;;;;;;;6.00;4.00;;;;;13.35;68.80;100879.78;5021094;28;46643;-67
2022/12/24 02:24:22;;;;;;;;;12.00;7.33;;;;;13.34;69.09;100878.84;5030901;28;45437;-65
2022/12/24 02:26:47;;;;;;;;;11.00;3.00;;;;;13.32;68.86;100877.94;5034543;28;45566;-64
2022/12/24 02:29:16;;;;;;;;;6.33;5.67;;;;;13.33;69.28;100873.44;5035114;28;45549;-65
2022/12/24 02:32:00;;;;;;;;;9.67;6.00;;;;;13.23;69.02;100864.31;5034297;28;45465;-66
2022/12/24 02:35:05;;;;;;;;;7.67;5.00;;;;;13.33;69.47;100893.16;5033387;28;45484;-68
2022/12/24 02:37:36;;;;;;;;;6.67;5.00;;;;;13.21;68.48;100855.34;5001510;28;45585;-65
2022/12/24 02:40:13;;;;;;;;;3.33;3.33;;;;;12.96;68.90;100806.63;5032211;28;45550;-65
2022/12/24 02:42:43;;;;;;;;;10.67;3.00;;;;;13.39;69.04;100877.16;5030191;28;46316;-64
2022/12/24 02:45:14;;;;;;;;;7.67;5.00;;;;;13.40;68.58;100865.53;5029993;28;45441;-65
2022/12/24 02:47:42;;;;;;;;;10.00;4.33;;;;;13.28;68.26;100846.50;5034710;28;45505;-65
2022/12/24 02:50:12;;;;;;;;;9.00;4.33;;;;;13.25;69.12;100857.22;5033451;28;45589;-70
2022/12/24 02:52:48;;;;;;;;;12.00;7.33;;;;;13.39;68.88;100889.66;5032764;28;45494;-65
2022/12/24 02:55:22;;;;;;;;;13.00;5.67;;;;;13.11;68.83;100840.84;5023036;28;45475;-63
2022/12/24 02:57:50;;;;;;;;;5.67;4.33;;;;;13.43;68.41;100886.19;5034460;28;45461;-68
2022/12/24 03:00:18;;;;;;;;;10.67;3.67;;;;;13.45;68.48;100868.31;5029103;28;45451;-66
2022/12/24 03:02:51;;;;;;;;;7.00;4.00;;;;;13.44;69.20;100878.13;5032357;28;46313;-64
2022/12/24 03:05:45;;;;;;;;;9.00;5.00;;;;;13.39;69.21;100855.66;5032669;28;45375;-66
2022/12/24 03:08:14;;;;;;;;;8.33;4.33;;;;;13.45;68.57;100863.84;5024048;28;45434;-65
2022/12/24 03:10:50;;;;;;;;;6.33;4.00;;;;;13.40;68.62;100849.44;5031060;28;45466;-67
2022/12/24 03:13:18;;;;;;;;;5.33;4.67;;;;;13.47;68.60;100860.28;5033027;28;46659;-65
2022/12/24 03:15:45;;;;;;;;;10.67;4.67;;;;;13.47;68.89;100868.34;5033831;28;45463;-65
2022/12/24 03:18:12;;;;;;;;;14.00;8.33;;;;;13.43;68.45;100853.97;5031976;28;45565;-65
2022/12/24 03:20:41;;;;;;;;;8.33;6.67;;;;;13.34;68.98;100829.66;5032433;28;45425;-64
2022/12/24 03:23:07;;;;;;;;;4.00;4.00;;;;;13.45;68.35;100866.53;5033621;28;46434;-65
2022/12/24 03:25:34;;;;;;;;;7.33;4.33;;;;;13.45;68.00;100857.56;5031509;28;45809;-65
2022/12/24 03:28:03;;;;;;;;;6.67;5.00;;;;;13.44;68.59;100847.69;5028625;28;46823;-65
2022/12/24 03:30:29;;;;;;;;;7.67;4.67;;;;;13.47;68.63;100841.50;5030344;28;45407;-66
2022/12/24 03:32:55;;;;;;;;;9.33;5.00;;;;;13.50;68.04;100854.97;5034281;28;46618;-66
2022/12/24 03:35:21;;;;;;;;;13.67;7.00;;;;;13.47;68.05;100847.75;5034202;28;45480;-68
2022/12/24 03:37:46;;;;;;;;;10.33;4.33;;;;;13.46;67.80;100837.88;5034258;28;45320;-66
2022/12/24 03:40:12;;;;;;;;;7.33;7.00;;;;;13.57;68.06;100873.88;5007167;28;45965;-67
2022/12/24 03:42:37;;;;;;;;;12.33;4.67;;;;;13.56;68.00;100876.53;5033887;28;45507;-68
2022/12/24 03:45:03;;;;;;;;;6.33;3.00;;;;;13.41;67.88;100845.91;5031753;28;45623;-67
2022/12/24 03:47:29;;;;;;;;;11.33;8.33;;;;;13.57;68.38;100878.34;5028527;28;45408;-67
2022/12/24 03:49:55;;;;;;;;;7.33;3.00;;;;;13.50;68.70;100863.03;5033668;28;45395;-66
2022/12/24 03:52:20;;;;;;;;;11.00;5.33;;;;;13.43;67.97;100852.19;5028381;28;45349;-67
2022/12/24 03:54:46;;;;;;;;;7.67;3.67;;;;;13.54;67.93;100864.88;5033883;28;45724;-66
2022/12/24 03:57:11;;;;;;;;;5.67;4.00;;;;;13.49;68.30;100863.88;5031790;28;45583;-64
2022/12/24 03:59:36;;;;;;;;;7.33;5.33;;;;;13.45;67.90;100866.53;5026545;28;45735;-66
2022/12/24 04:02:02;;;;;;;;;5.00;3.67;;;;;13.55;68.17;100885.47;5036024;28;45403;-65
2022/12/24 04:04:27;;;;;;;;;9.33;3.00;;;;;13.41;68.57;100859.31;5037182;28;45399;-65
2022/12/24 04:06:53;;;;;;;;;15.67;6.00;;;;;13.51;68.17;100883.59;5037692;28;45413;-65
2022/12/24 04:09:18;;;;;;;;;4.33;4.00;;;;;13.44;68.25;100880.81;5037653;28;45475;-67
2022/12/24 04:11:43;;;;;;;;;6.00;4.00;;;;;13.33;68.33;100866.34;5037134;28;45505;-67
2022/12/24 04:14:09;;;;;;;;;4.00;4.00;;;;;13.34;68.38;100876.16;5035880;28;45426;-67
2022/12/24 04:16:35;;;;;;;;;11.67;8.00;;;;;13.44;68.84;100899.59;5036272;28;45572;-65
2022/12/24 04:19:01;;;;;;;;;11.33;7.00;;;;;13.27;68.68;100871.56;5035017;28;45547;-64
2022/12/24 04:21:26;;;;;;;;;11.33;5.00;;;;;13.00;68.77;100832.63;5036658;28;45476;-63
2022/12/24 04:23:52;;;;;;;;;8.00;4.00;;;;;13.40;69.08;100895.06;5034220;28;45486;-64
2022/12/24 04:26:17;;;;;;;;;7.67;5.00;;;;;13.26;68.60;100873.34;5034836;28;46533;-64
2022/12/24 04:28:43;;;;;;;;;7.33;4.33;;;;;13.36;68.93;100901.25;5037058;28;45535;-63
2022/12/24 04:31:12;;;;;;;;;12.00;5.00;;;;;13.22;69.42;100882.19;5018537;28;47061;-64
2022/12/24 04:33:37;;;;;;;;;8.00;5.00;;;;;13.27;68.90;100890.34;5028550;28;45858;-66
2022/12/24 04:36:04;;;;;;;;;11.00;5.00;;;;;13.33;68.83;100903.91;5033862;28;45531;-64
2022/12/24 04:38:31;;;;;;;;;8.67;6.67;;;;;13.38;69.53;100923.66;5036828;28;45514;-66
2022/12/24 04:41:04;;;;;;;;;10.00;5.00;;;;;13.37;68.88;100926.31;5035936;28;45445;-65
2022/12/24 04:43:30;;;;;;;;;4.00;3.33;;;;;13.31;69.33;100910.97;5032609;28;44872;-64
2022/12/24 04:45:55;;;;;;;;;8.33;5.00;;;;;13.40;69.39;100924.59;5032092;28;45375;-63
2022/12/24 04:48:21;;;;;;;;;7.33;4.33;;;;;13.31;69.41;100910.06;5032766;28;45460;-65
2022/12/24 04:50:46;;;;;;;;;7.67;4.00;;;;;13.27;68.81;100917.16;5029245;28;46344;-65
2022/12/24 04:53:13;;;;;;;;;11.67;5.00;;;;;13.36;69.59;100924.50;5030943;28;45382;-63
2022/12/24 04:55:46;;;;;;;;;7.67;4.67;;;;;13.39;68.45;100927.25;5026688;28;45410;-65
2022/12/24 04:58:12;;;;;;;;;12.00;6.67;;;;;13.39;68.70;100928.13;5024859;28;45533;-66
2022/12/24 05:00:38;;;;;;;;;11.33;7.00;;;;;13.38;69.24;100926.34;5018145;28;45564;-63
2022/12/24 05:03:03;;;;;;;;;15.00;6.33;;;;;13.25;68.76;100903.72;5029978;28;45511;-64
2022/12/24 05:05:29;;;;;;;;;10.00;7.00;;;;;13.35;69.28;100934.34;5033261;28;45553;-64
2022/12/24 05:07:54;;;;;;;;;9.33;4.67;;;;;13.35;69.33;100942.38;5036206;28;45376;-65
2022/12/24 05:10:19;;;;;;;;;8.33;5.33;;;;;13.31;68.60;100932.44;5035352;28;45695;-64
2022/12/24 05:12:45;;;;;;;;;5.00;3.00;;;;;13.27;69.39;100925.22;5032952;28;45706;-64
2022/12/24 05:15:10;;;;;;;;;12.00;4.67;;;;;13.25;69.13;100919.81;5036080;28;45380;-65
2022/12/24 05:17:35;;;;;;;;;6.33;5.00;;;;;13.40;68.91;100938.00;5036447;28;45468;-65
2022/12/24 05:20:01;;;;;;;;;6.67;5.33;;;;;13.42;68.89;100927.28;5015867;28;45488;-65
2022/12/24 05:27:59;;;;;;;;;5.67;3.00;;;;;13.31;69.19;100904.69;5031263;28;45642;-65
2022/12/24 05:30:24;;;;;;;;;13.67;6.00;;;;;13.45;69.14;100930.03;5028663;28;45477;-65
2022/12/24 05:32:49;;;;;;;;;7.33;2.67;;;;;13.45;69.49;100920.19;5031583;28;58224;-64
2022/12/24 05:35:15;;;;;;;;;11.00;5.00;;;;;13.33;69.92;100902.97;5034826;28;45522;-64
2022/12/24 05:37:40;;;;;;;;;13.67;6.33;;;;;13.32;70.01;100904.75;5033862;28;45343;-65
2022/12/24 05:40:06;;;;;;;;;4.00;3.67;;;;;13.31;69.59;100900.22;5030721;28;45962;-66
2022/12/24 05:42:31;;;;;;;;;9.00;4.00;;;;;13.29;70.15;100899.31;5035092;28;45509;-63
2022/12/24 05:44:57;;;;;;;;;9.67;5.33;;;;;13.26;70.22;100883.16;5019960;28;45392;-65
2022/12/24 05:47:22;;;;;;;;;9.00;4.00;;;;;13.38;70.47;100904.88;5034310;28;45420;-63
2022/12/24 05:49:47;;;;;;;;;6.33;3.67;;;;;13.41;70.79;100907.63;5035417;28;45549;-63
2022/12/24 05:52:13;;;;;;;;;7.00;5.33;;;;;13.39;70.14;100917.41;5035089;28;48764;-64
2022/12/24 05:54:38;;;;;;;;;9.67;4.00;;;;;13.24;71.03;100882.22;5028258;28;48913;-64
2022/12/24 05:57:03;;;;;;;;;10.67;6.33;;;;;13.33;70.70;100894.91;5027436;28;45996;-64
2022/12/24 05:59:29;;;;;;;;;9.33;5.33;;;;;13.39;70.75;100905.78;5028137;28;45529;-64
2022/12/24 06:01:54;;;;;;;;;13.00;5.00;;;;;13.25;70.86;100876.00;5035217;28;45321;-66
2022/12/24 06:04:19;;;;;;;;;7.00;3.67;;;;;13.42;70.59;100901.34;5035309;28;45456;-65
2022/12/24 06:06:45;;;;;;;;;7.00;3.00;;;;;13.40;71.14;100911.16;5034523;28;45318;-65
2022/12/24 06:09:10;;;;;;;;;6.67;6.67;;;;;13.31;71.36;100885.91;5033678;28;45518;-64
2022/12/24 06:11:35;;;;;;;;;10.00;4.00;;;;;13.12;71.43;100853.41;5030976;28;45765;-66
2022/12/24 06:14:01;;;;;;;;;12.67;9.00;;;;;13.36;71.46;100886.94;5034290;28;45482;-65
2022/12/24 06:16:26;;;;;;;;;10.67;6.00;;;;;13.41;70.61;100907.63;5035614;28;45467;-64
2022/12/24 06:18:53;;;;;;;;;5.67;4.67;;;;;13.33;71.34;100900.28;5034826;28;46447;-67
2022/12/24 06:21:19;;;;;;;;;11.33;2.00;;;;;13.15;71.26;100876.69;5035488;28;45293;-66
2022/12/24 06:23:45;;;;;;;;;8.67;5.00;;;;;13.39;70.92;100911.13;5031434;28;45480;-64
2022/12/24 06:26:14;;;;;;;;;10.67;4.33;;;;;13.21;70.52;100879.47;5032200;28;45613;-64
2022/12/24 06:28:39;;;;;;;;;8.00;7.00;;;;;13.35;70.79;100915.56;5031703;28;45575;-66
2022/12/24 06:31:06;;;;;;;;;9.67;5.00;;;;;13.33;70.75;100903.91;5034977;28;45304;-64
2022/12/24 06:33:33;;;;;;;;;10.00;4.00;;;;;13.38;70.35;100918.28;5031509;28;45573;-65
2022/12/24 06:35:59;;;;;;;;;7.00;5.33;;;;;13.40;70.46;100916.53;5034422;28;45604;-65
2022/12/24 06:38:25;;;;;;;;;5.33;3.00;;;;;13.24;70.94;100884.91;5027598;28;46028;-66
2022/12/24 06:40:50;;;;;;;;;10.67;8.67;;;;;13.33;71.01;100902.97;5034839;28;45384;-64
2022/12/24 06:43:16;;;;;;;;;5.67;4.00;;;;;13.36;70.29;100903.91;5030515;28;45329;-64
2022/12/24 06:45:46;;;;;;;;;4.33;4.33;;;;;13.37;69.91;100905.75;5031885;28;45433;-64
2022/12/24 06:48:11;;;;;;;;;5.67;4.00;;;;;13.34;69.95;100896.75;5033468;28;45325;-66
2022/12/24 06:50:36;;;;;;;;;8.67;5.00;;;;;13.21;70.05;100875.00;5033052;28;45395;-67
2022/12/24 06:53:02;;;;;;;;;7.00;5.67;;;;;13.33;70.69;100900.28;5033621;28;45300;-66
2022/12/24 06:55:27;;;;;;;;;11.67;4.67;;;;;13.31;69.68;100897.53;5034965;28;45532;-66
2022/12/24 06:57:52;;;;;;;;;8.00;5.33;;;;;13.32;69.81;100903.84;5033983;28;45462;-67
2022/12/24 07:00:20;;;;;;;;;10.67;4.00;;;;;13.30;70.02;100898.44;5034338;28;45535;-67
2022/12/24 07:02:46;;;;;;;;;10.67;4.67;;;;;13.32;69.56;100910.13;5031547;28;45455;-67
2022/12/24 07:05:12;;;;;;;;;8.33;5.33;;;;;13.32;70.12;100914.56;5034386;28;45516;-65
2022/12/24 07:07:41;;;;;;;;;4.33;3.67;;;;;13.06;69.80;100874.75;5032514;28;45701;-70
2022/12/24 07:10:10;;;;;;;;;2.00;2.00;;;;;13.25;69.59;100898.34;5034620;28;45478;-73
2022/12/24 07:12:36;;;;;;;;;3.00;3.00;;;;;13.22;69.18;100897.41;5034152;28;45347;-68
2022/12/24 07:15:01;;;;;;;;;4.00;2.00;;;;;13.14;69.27;100891.00;5034454;28;45401;-70
2022/12/24 07:17:26;;;;;;;;;8.00;3.00;;;;;13.26;69.14;100924.31;5034256;28;46087;-69
2022/12/24 07:19:52;;;;;;;;;6.67;2.67;;;;;13.27;69.33;100933.25;5029313;28;45657;-67
2022/12/24 07:22:18;;;;;;;;;4.00;2.33;;;;;13.17;69.18;100924.13;5031097;28;46192;-69
2022/12/24 07:24:43;;;;;;;;;6.33;3.67;;;;;13.24;69.06;100935.88;5049638;28;45181;-66
2022/12/24 07:27:08;;;;;;;;;10.00;4.67;;;;;13.27;69.13;100938.63;5033277;28;48053;-69
2022/12/24 07:29:34;;;;;;;;;3.67;2.33;;;;;13.10;69.18;100898.09;5013244;28;45646;-73
2022/12/24 07:32:00;;;;;;;;;3.00;1.00;;;;;13.12;68.88;100904.38;5028068;28;45497;-69
2022/12/24 07:34:25;;;;;;;;;3.33;3.33;;;;;13.30;69.37;100927.03;5015772;28;45775;-70
2022/12/24 07:36:50;;;;;;;;;6.67;5.00;;;;;13.31;69.04;100928.84;5029981;28;45690;-69
2022/12/24 07:39:16;;;;;;;;;4.33;2.00;;;;;13.28;67.98;100935.97;5031470;28;45783;-71
2022/12/24 07:41:42;;;;;;;;;4.00;3.00;;;;;13.26;68.40;100939.50;5031479;28;45401;-71
2022/12/24 07:44:11;;;;;;;;;7.00;3.00;;;;;13.30;68.34;100949.41;5027928;28;45666;-70
2022/12/24 07:46:37;;;;;;;;;5.00;1.00;;;;;12.79;68.57;100859.06;5031524;28;46005;-72
2022/12/24 07:49:02;;;;;;;;;2.00;2.00;;;;;13.33;68.47;100953.97;5033241;28;45391;-70
2022/12/24 07:51:28;;;;;;;;;2.00;0.67;;;;;13.34;68.42;100962.03;5029897;28;46060;-71
2022/12/24 07:53:53;;;;;;;;;3.33;2.00;;;;;13.14;68.19;100917.81;5032341;28;45616;-70
2022/12/24 07:56:19;;;;;;;;;2.00;2.00;;;;;13.37;67.82;100954.03;5032135;28;46547;-69
2022/12/24 07:58:44;;;;;;;;;4.33;1.00;;;;;13.33;68.10;100943.22;5028848;28;45570;-68
2022/12/24 08:01:10;;;;;;;;;3.67;2.33;;;;;13.33;67.78;100943.22;5031417;28;45655;-71
2022/12/24 08:03:35;;;;;;;;;2.00;2.00;;;;;13.30;67.65;100945.81;5012984;28;45523;-71
2022/12/24 08:06:00;;;;;;;;;2.33;1.00;;;;;13.35;67.67;100965.66;5028376;28;46629;-71
2022/12/24 08:08:26;;;;;;;;;5.00;2.00;;;;;13.29;68.03;100952.97;5033248;28;45651;-70
2022/12/24 08:10:51;;;;;;;;;4.00;2.67;;;;;13.32;68.05;100960.19;5030507;28;46462;-71
2022/12/24 08:13:17;;;;;;;;;6.00;3.00;;;;;13.23;67.60;100942.13;5031054;28;45688;-71
2022/12/24 08:15:43;;;;;;;;;4.00;3.00;;;;;13.30;67.29;100956.53;5031903;28;46548;-72
2022/12/24 08:18:09;;;;;;;;;7.00;3.00;;;;;13.41;67.70;100973.78;5031156;28;45262;-70
2022/12/24 08:20:37;;;;;;;;;1.33;0.67;;;;;13.31;67.58;100956.56;5033222;28;45637;-73
2022/12/24 08:23:03;;;;;;;;;2.00;2.00;;;;;13.39;67.58;100971.06;5029883;28;45485;-69
2022/12/24 08:25:28;;;;;;;;;3.00;3.00;;;;;13.47;67.13;100978.38;5025965;28;46286;-70
2022/12/24 08:27:54;;;;;;;;;7.00;3.33;;;;;13.50;67.56;100991.88;5028648;28;45634;-69
2022/12/24 08:30:19;;;;;;;;;3.33;2.67;;;;;13.35;67.39;100961.19;5028472;28;48846;-70
2022/12/24 08:32:44;;;;;;;;;2.00;1.67;;;;;13.43;67.44;100988.16;5035927;28;45443;-69
2022/12/24 08:35:10;;;;;;;;;4.00;1.00;;;;;13.45;67.49;100992.66;5028626;28;48285;-71
2022/12/24 08:37:35;;;;;;;;;2.00;2.00;;;;;13.39;66.99;100989.84;5029051;28;45534;-70
2022/12/24 08:40:01;;;;;;;;;4.67;3.00;;;;;13.38;67.68;100989.81;5027595;28;45783;-69
2022/12/24 08:42:27;;;;;;;;;4.00;2.00;;;;;13.26;67.74;100963.63;5012992;28;45465;-72
2022/12/24 08:44:52;;;;;;;;;3.00;3.00;;;;;13.39;66.93;100984.50;5027351;28;45428;-75
2022/12/24 08:47:17;;;;;;;;;0.33;0.33;;;;;13.48;67.40;101015.06;5033601;28;45371;-70
2022/12/24 08:49:42;;;;;;;;;4.33;2.33;;;;;13.30;67.52;100980.69;5038067;28;49724;-70
2022/12/24 08:52:08;;;;;;;;;4.33;2.00;;;;;13.49;67.86;101024.94;5036538;28;45256;-70
2022/12/24 08:54:33;;;;;;;;;8.00;5.00;;;;;13.50;67.48;101021.38;5034593;28;47016;-69
2022/12/24 08:56:59;;;;;;;;;1.67;1.00;;;;;13.43;67.75;101017.69;5033381;28;45465;-70
2022/12/24 08:59:24;;;;;;;;;1.00;0.00;;;;;13.45;67.31;101030.25;5033477;28;45727;-71
2022/12/24 09:01:49;;;;;;;;;3.67;2.67;;;;;13.45;67.40;101043.66;5036196;28;45537;-70
2022/12/24 09:04:15;;;;;;;;;5.00;4.00;;;;;13.47;67.46;101048.16;5027941;28;50341;-72
2022/12/24 09:06:40;;;;;;;;;4.67;2.67;;;;;13.40;67.49;101031.94;5028733;28;45517;-72
2022/12/24 09:09:06;;;;;;;;;1.33;1.33;;;;;13.43;67.05;101042.72;5033013;28;45288;-70
2022/12/24 09:11:33;;;;;;;;;2.67;2.67;;;;;13.56;67.49;101056.38;5029914;28;45549;-71
2022/12/24 09:14:01;;;;;;;;;4.67;4.00;;;;;13.57;66.99;101060.88;5035447;28;45640;-70
2022/12/24 09:16:27;;;;;;;;;4.00;3.33;;;;;13.57;66.80;101066.25;5036905;28;45500;-69
2022/12/24 09:18:52;;;;;;;;;3.33;1.00;;;;;13.36;67.42;101037.22;5033577;28;45472;-69
2022/12/24 09:21:18;;;;;;;;;3.00;1.67;;;;;13.53;67.36;101062.63;5036435;28;46700;-71
2022/12/24 09:23:46;;;;;;;;;5.67;4.00;;;;;13.59;67.21;101065.38;5025559;28;48576;-70
2022/12/24 09:26:31;;;;;;;;;2.67;1.33;;;;;13.56;66.43;101060.00;5053329;28;45130;-72
2022/12/24 09:28:59;;;;;;;;;5.67;4.67;;;;;13.59;67.15;101080.59;5052268;28;45077;-72
2022/12/24 09:31:25;;;;;;;;;2.33;1.67;;;;;13.59;66.60;101085.97;5042503;28;45482;-69
2022/12/24 09:33:51;;;;;;;;;4.33;2.33;;;;;13.57;67.25;101085.94;5029031;28;46317;-70
2022/12/24 09:36:17;;;;;;;;;3.67;0.33;;;;;13.60;67.09;101086.00;5016274;28;45360;-71
2022/12/24 09:38:43;;;;;;;;;2.00;1.33;;;;;13.56;67.25;101083.22;5035601;28;44896;-70
2022/12/24 09:41:46;;;;;;;;;3.33;2.67;;;;;13.59;66.79;101085.97;5030423;28;45608;-71
2022/12/24 09:44:30;;;;;;;;;3.00;2.00;;;;;13.58;67.20;101092.25;5036281;28;45529;-70
2022/12/24 09:47:00;;;;;;;;;5.33;1.67;;;;;13.53;66.70;101083.16;5012908;28;45339;-74
2022/12/24 09:49:35;;;;;;;;;2.33;2.33;;;;;13.62;67.10;101088.72;5035708;28;45369;-70
2022/12/24 09:52:07;;;;;;;;;2.67;2.67;;;;;13.51;67.40;101064.34;5027886;28;45617;-70
2022/12/24 09:54:49;;;;;;;;;4.67;2.00;;;;;13.65;66.82;101080.72;5033648;28;46262;-69
2022/12/24 09:57:23;;;;;;;;;8.33;2.67;;;;;13.54;67.18;101058.13;5034892;28;45398;-71
2022/12/24 09:59:49;;;;;;;;;5.33;2.67;;;;;13.64;67.20;101071.78;5032109;28;45445;-72
2022/12/24 10:02:17;;;;;;;;;2.67;2.00;;;;;13.68;67.75;101072.75;5034559;28;45479;-68
2022/12/24 10:04:44;;;;;;;;;6.00;3.00;;;;;13.75;67.51;101073.75;5034450;28;45613;-70
2022/12/24 10:07:27;;;;;;;;;2.00;2.00;;;;;13.75;67.64;101073.75;5034523;28;45513;-71
2022/12/24 10:10:22;;;;;;;;;1.33;1.33;;;;;13.75;67.64;101069.28;5031794;28;45572;-71
2022/12/24 10:13:06;;;;;;;;;3.33;2.67;;;;;13.79;67.69;101068.47;5031315;28;45532;-72
2022/12/24 10:16:06;;;;;;;;;5.33;2.00;;;;;13.34;67.73;101002.28;5026821;28;47473;-71
2022/12/24 10:19:02;;;;;;;;;11.33;8.33;;;;;13.82;67.48;101083.72;5014792;28;45334;-71
2022/12/24 10:21:40;;;;;;;;;4.67;3.33;;;;;13.71;67.19;101066.50;5028589;28;45628;-72
2022/12/24 10:24:13;;;;;;;;;4.00;1.33;;;;;13.72;66.89;101052.22;5015046;28;45553;-71
2022/12/24 10:27:03;;;;;;;;;2.00;2.00;;;;;13.76;66.89;101056.75;5029669;28;45489;-70
2022/12/24 10:29:33;;;;;;;;;3.33;3.33;;;;;13.80;66.86;101070.25;5026039;28;45487;-70
2022/12/24 10:32:07;;;;;;;;;4.00;3.00;;;;;13.93;66.72;101081.25;5030892;28;45479;-70
2022/12/24 10:34:43;;;;;;;;;3.00;3.00;;;;;13.86;67.29;101058.75;5030518;28;45574;-71
2022/12/24 10:37:29;;;;;;;;;3.00;3.00;;;;;13.92;66.88;101079.41;5029320;28;47061;-71
2022/12/24 10:39:57;;;;;;;;;2.67;1.67;;;;;14.00;67.09;101081.34;5014598;28;45445;-72
2022/12/24 10:42:26;;;;;;;;;8.33;3.67;;;;;14.05;67.02;101075.19;5013771;28;48503;-70
2022/12/24 10:44:56;;;;;;;;;8.00;3.67;;;;;14.04;66.63;101065.28;5034998;28;45360;-70
2022/12/24 10:47:23;;;;;;;;;7.00;3.00;;;;;13.88;66.45;101040.88;5033938;28;46450;-71
2022/12/24 10:50:09;;;;;;;;;2.33;2.33;;;;;14.06;66.51;101072.53;5015993;28;45418;-69
2022/12/24 10:52:37;;;;;;;;;3.67;1.00;;;;;13.88;66.17;101051.59;5032641;28;45565;-69
2022/12/24 10:55:23;;;;;;;;;3.33;1.67;;;;;13.94;66.43;101059.78;5035215;28;45323;-70
2022/12/24 10:58:04;;;;;;;;;3.00;3.00;;;;;14.05;66.31;101076.06;5049585;28;45370;-70
2022/12/24 11:00:30;;;;;;;;;6.00;3.00;;;;;14.10;66.00;101074.38;5026033;28;44979;-71
2022/12/24 11:03:11;;;;;;;;;4.67;3.00;;;;;14.09;66.16;101072.56;5047892;28;45148;-70
2022/12/24 11:05:37;;;;;;;;;3.00;3.00;;;;;14.08;66.40;101065.38;5040986;28;45466;-72
2022/12/24 11:08:18;;;;;;;;;5.00;4.00;;;;;14.10;66.29;101063.63;5045857;28;45447;-72
2022/12/24 11:11:13;;;;;;;;;4.00;3.00;;;;;13.91;66.06;101024.81;5042660;28;45089;-70
2022/12/24 11:13:44;;;;;;;;;3.33;2.00;;;;;13.95;65.90;101034.72;5048587;28;45447;-70
2022/12/24 11:16:26;;;;;;;;;2.00;2.00;;;;;14.06;65.85;101044.75;5048101;28;45227;-70
2022/12/24 11:18:57;;;;;;;;;4.00;3.00;;;;;14.11;65.89;101060.06;5045654;28;45808;-71
2022/12/24 11:21:43;;;;;;;;;5.67;3.00;;;;;14.13;65.69;101066.34;5050988;28;45122;-73
2022/12/24 11:24:11;;;;;;;;;1.67;1.67;;;;;14.18;65.65;101053.00;5047665;28;45254;-69
2022/12/24 11:26:38;;;;;;;;;5.67;4.00;;;;;14.11;65.42;101035.00;5036886;28;45292;-68
2022/12/24 11:29:19;;;;;;;;;3.67;3.67;;;;;14.22;65.76;101041.41;5029426;28;45563;-71
2022/12/24 11:31:45;;;;;;;;;2.67;2.67;;;;;14.26;65.62;101051.34;5027054;28;45450;-70
2022/12/24 11:34:32;;;;;;;;;7.67;3.67;;;;;14.28;65.50;101051.38;5025418;28;45470;-71
2022/12/24 11:37:30;;;;;;;;;2.67;2.67;;;;;14.29;65.83;101053.19;5031851;28;45533;-73
2022/12/24 11:40:00;;;;;;;;;6.67;3.33;;;;;14.24;65.84;101038.75;4996910;28;45503;-69
2022/12/24 11:42:38;;;;;;;;;8.67;6.67;;;;;14.35;65.42;101053.28;5030225;28;45486;-72